Time;durP1;ratioP1;P1;durP2;ratioP2;P2;SDS_P1;SDS_P2;PMS_P1;PMS_P2;Temp;Humidity;BMP_temperature;BMP_pressure;BME280_temperature;BME280_humidity;BME280_pressure;Samples;Min_cycle;Max_cycle;Signal;HPM_P1;HPM_P2
2022/10/21 00:02:42;;;;;;;48.70;29.92;;;;;;;;;;6302086;28;20262;-78
2022/10/21 00:05:44;;;;;;;51.50;31.20;;;;;;;;;;6307592;28;20064;-76
2022/10/21 00:08:45;;;;;;;48.83;29.58;;;;;;;;;;6307108;28;20061;-72
2022/10/21 00:11:47;;;;;;;51.78;30.85;;;;;;;;;;6303265;28;20102;-82
2022/10/21 00:14:49;;;;;;;51.33;30.52;;;;;;;;;;6301605;28;20072;-74
2022/10/21 00:17:52;;;;;;;49.97;31.25;;;;;;;;;;6306065;28;20093;-69
2022/10/21 00:20:53;;;;;;;48.67;30.55;;;;;;;;;;6307202;28;20083;-82
2022/10/21 00:23:55;;;;;;;47.58;30.85;;;;;;;;;;6304384;28;20052;-84
2022/10/21 00:26:56;;;;;;;48.80;29.52;;;;;;;;;;6304151;28;20044;-80
2022/10/21 00:29:58;;;;;;;47.60;29.75;;;;;;;;;;6301527;28;20333;-80
2022/10/21 00:33:01;;;;;;;48.35;30.02;;;;;;;;;;6302415;28;21051;-88
2022/10/21 00:36:03;;;;;;;54.15;32.13;;;;;;;;;;6303874;28;20064;-88
2022/10/21 00:39:05;;;;;;;48.58;30.08;;;;;;;;;;6302164;28;20090;-90
2022/10/21 00:42:11;;;;;;;52.05;30.15;;;;;;;;;;6303669;28;20052;-75
2022/10/21 00:45:20;;;;;;;47.00;29.13;;;;;;;;;;6309086;28;20041;-75
2022/10/21 00:48:30;;;;;;;53.33;30.60;;;;;;;;;;6306507;28;20052;-75
2022/10/21 00:51:32;;;;;;;55.38;30.90;;;;;;;;;;6310366;28;20368;-75
2022/10/21 00:54:34;;;;;;;49.22;30.48;;;;;;;;;;6306011;28;20063;-75
2022/10/21 00:57:36;;;;;;;56.08;30.70;;;;;;;;;;6310715;28;20056;-75
2022/10/21 01:00:38;;;;;;;51.83;29.95;;;;;;;;;;6307057;28;20335;-72
2022/10/21 01:03:41;;;;;;;48.55;30.27;;;;;;;;;;6307968;28;20078;-74
2022/10/21 01:06:42;;;;;;;51.10;30.08;;;;;;;;;;6308910;28;20044;-75
2022/10/21 01:09:44;;;;;;;45.58;28.63;;;;;;;;;;6309826;28;20393;-71
2022/10/21 01:12:56;;;;;;;45.05;28.52;;;;;;;;;;6308728;28;20048;-74
2022/10/21 01:16:02;;;;;;;50.60;29.70;;;;;;;;;;6310267;28;20324;-75
2022/10/21 01:19:22;;;;;;;46.53;28.30;;;;;;;;;;6307250;28;20048;-75
2022/10/21 01:22:39;;;;;;;47.47;29.75;;;;;;;;;;6305231;28;20074;-77
2022/10/21 01:25:55;;;;;;;48.28;30.13;;;;;;;;;;6309329;28;20060;-72
2022/10/21 01:29:10;;;;;;;51.28;29.60;;;;;;;;;;6305703;28;20091;-75
2022/10/21 01:32:18;;;;;;;46.35;28.00;;;;;;;;;;6303310;28;20324;-76
2022/10/21 01:35:21;;;;;;;41.72;27.35;;;;;;;;;;6308689;28;20052;-74
2022/10/21 01:38:30;;;;;;;49.08;27.88;;;;;;;;;;6307598;28;20292;-78
2022/10/21 01:41:36;;;;;;;46.50;29.00;;;;;;;;;;6308778;28;20044;-76
2022/10/21 01:44:42;;;;;;;48.00;29.20;;;;;;;;;;6309816;28;20044;-76
2022/10/21 01:47:47;;;;;;;43.08;27.98;;;;;;;;;;6306652;28;20052;-72
2022/10/21 01:50:52;;;;;;;43.83;28.02;;;;;;;;;;6311466;28;20093;-69
2022/10/21 01:53:57;;;;;;;40.17;27.17;;;;;;;;;;6305380;28;20056;-75
2022/10/21 01:56:59;;;;;;;40.72;26.85;;;;;;;;;;6312484;28;20060;-77
2022/10/21 02:00:01;;;;;;;44.22;26.77;;;;;;;;;;6307496;28;20049;-75
2022/10/21 02:03:09;;;;;;;39.33;25.98;;;;;;;;;;6309440;28;20075;-75
2022/10/21 02:06:12;;;;;;;39.55;25.30;;;;;;;;;;6309902;28;20064;-67
2022/10/21 02:09:14;;;;;;;;;;;;;;;;;;6308174;28;20036;-74
2022/10/21 02:12:16;;;;;;;56.33;31.20;;;;;;;;;;6305753;28;21439;-71
2022/10/21 02:15:18;;;;;;;41.17;26.77;;;;;;;;;;6307618;28;20090;-77
2022/10/21 02:18:23;;;;;;;41.88;26.05;;;;;;;;;;6314119;28;20047;-82
2022/10/21 02:21:27;;;;;;;43.45;25.00;;;;;;;;;;6311781;28;20389;-84
2022/10/21 02:24:33;;;;;;;40.85;25.30;;;;;;;;;;6306109;28;20471;-77
2022/10/21 02:27:35;;;;;;;37.20;25.05;;;;;;;;;;6313575;28;20074;-77
2022/10/21 02:30:41;;;;;;;38.13;25.00;;;;;;;;;;6311153;28;20051;-80
2022/10/21 02:33:52;;;;;;;38.00;24.55;;;;;;;;;;6308239;28;20153;-74
2022/10/21 02:36:56;;;;;;;34.60;23.30;;;;;;;;;;6307020;28;20342;-74
2022/10/21 02:40:04;;;;;;;31.90;22.27;;;;;;;;;;6302496;28;20089;-77
2022/10/21 02:43:07;;;;;;;35.03;23.17;;;;;;;;;;6305066;28;20093;-73
2022/10/21 02:46:12;;;;;;;34.25;23.00;;;;;;;;;;6307803;28;20060;-78
2022/10/21 02:49:15;;;;;;;35.92;22.52;;;;;;;;;;6306911;28;20248;-78
2022/10/21 02:52:16;;;;;;;33.67;22.08;;;;;;;;;;6307359;28;20101;-74
2022/10/21 02:55:18;;;;;;;34.45;22.73;;;;;;;;;;6309226;28;20213;-79
2022/10/21 02:58:19;;;;;;;30.25;21.27;;;;;;;;;;6305561;28;20048;-79
2022/10/21 03:01:21;;;;;;;32.25;23.27;;;;;;;;;;6306487;28;20102;-79
2022/10/21 03:04:24;;;;;;;30.63;22.08;;;;;;;;;;6303395;28;20335;-74
2022/10/21 03:07:25;;;;;;;31.65;22.15;;;;;;;;;;6306072;28;20094;-78
2022/10/21 03:10:27;;;;;;;33.92;22.55;;;;;;;;;;6288275;28;20095;-80
2022/10/21 03:13:29;;;;;;;31.27;21.45;;;;;;;;;;6308011;28;20266;-79
2022/10/21 03:16:30;;;;;;;31.35;22.25;;;;;;;;;;6303601;28;20393;-79
2022/10/21 03:19:33;;;;;;;35.08;21.55;;;;;;;;;;6304498;28;20094;-72
2022/10/21 03:22:35;;;;;;;29.23;21.58;;;;;;;;;;6303731;28;20048;-76
2022/10/21 03:25:37;;;;;;;34.50;21.58;;;;;;;;;;6305099;28;20268;-77
2022/10/21 03:28:38;;;;;;;30.58;22.05;;;;;;;;;;6304654;28;20052;-72
2022/10/21 03:31:40;;;;;;;27.65;21.55;;;;;;;;;;6306206;28;20052;-77
2022/10/21 03:34:43;;;;;;;31.88;20.75;;;;;;;;;;6306525;28;20076;-84
2022/10/21 03:37:44;;;;;;;29.63;20.48;;;;;;;;;;6302907;28;20048;-84
2022/10/21 03:40:46;;;;;;;27.98;21.35;;;;;;;;;;6301773;28;20381;-82
2022/10/21 03:43:48;;;;;;;31.67;21.30;;;;;;;;;;6302696;28;20052;-82
2022/10/21 03:46:49;;;;;;;25.70;20.00;;;;;;;;;;6299668;28;20326;-88
2022/10/21 03:49:52;;;;;;;30.85;21.00;;;;;;;;;;6303150;28;20052;-84
2022/10/21 03:52:54;;;;;;;30.15;21.98;;;;;;;;;;6300925;28;20103;-86
2022/10/21 03:55:56;;;;;;;29.90;20.92;;;;;;;;;;6309064;28;20286;-83
2022/10/21 03:58:57;;;;;;;31.02;20.55;;;;;;;;;;6305760;28;20056;-88
2022/10/21 04:01:59;;;;;;;34.80;21.65;;;;;;;;;;6303426;28;20052;-86
2022/10/21 04:05:02;;;;;;;29.95;20.30;;;;;;;;;;6302318;28;20060;-85
2022/10/21 04:08:04;;;;;;;27.10;20.52;;;;;;;;;;6306504;28;20258;-77
2022/10/21 04:11:06;;;;;;;27.17;19.35;;;;;;;;;;6306473;28;20102;-78
2022/10/21 04:14:07;;;;;;;29.50;21.02;;;;;;;;;;6303384;28;20056;-85
2022/10/21 04:17:09;;;;;;;28.17;19.95;;;;;;;;;;6306599;28;20213;-79
2022/10/21 04:20:12;;;;;;;30.90;20.80;;;;;;;;;;6308284;28;20067;-82
2022/10/21 04:23:14;;;;;;;27.48;19.77;;;;;;;;;;6313212;28;20056;-79
2022/10/21 04:26:15;;;;;;;26.33;19.55;;;;;;;;;;6310805;28;20048;-73
2022/10/21 04:29:17;;;;;;;29.67;20.92;;;;;;;;;;6312491;28;20056;-74
2022/10/21 04:32:19;;;;;;;27.48;20.63;;;;;;;;;;6311147;28;20040;-74
2022/10/21 04:35:22;;;;;;;29.40;21.40;;;;;;;;;;6307749;28;20170;-78
2022/10/21 04:38:24;;;;;;;25.60;20.60;;;;;;;;;;6310638;28;20362;-74
2022/10/21 04:41:25;;;;;;;31.90;21.50;;;;;;;;;;6300003;28;20712;-74
2022/10/21 04:44:27;;;;;;;27.45;20.85;;;;;;;;;;6293895;28;20044;-71
2022/10/21 04:47:29;;;;;;;29.42;22.05;;;;;;;;;;6303733;28;20402;-77
2022/10/21 04:50:33;;;;;;;29.00;20.50;;;;;;;;;;6305046;27;20618;-76
2022/10/21 04:53:35;;;;;;;32.28;20.40;;;;;;;;;;6310103;28;20051;-76
2022/10/21 04:56:36;;;;;;;26.20;20.33;;;;;;;;;;6308018;28;20048;-70
2022/10/21 04:59:38;;;;;;;29.73;21.30;;;;;;;;;;6310652;28;20052;-74
2022/10/21 05:02:40;;;;;;;31.70;21.55;;;;;;;;;;6314693;28;20051;-76
2022/10/21 05:05:43;;;;;;;29.52;20.88;;;;;;;;;;6308374;28;20446;-79
2022/10/21 05:08:44;;;;;;;30.65;22.25;;;;;;;;;;6309531;28;20344;-82
2022/10/21 05:11:46;;;;;;;30.55;21.15;;;;;;;;;;6315798;28;20120;-79
2022/10/21 05:14:47;;;;;;;30.52;21.20;;;;;;;;;;6312475;28;20049;-77
2022/10/21 05:17:49;;;;;;;32.35;22.23;;;;;;;;;;6307913;28;20044;-84
2022/10/21 05:20:52;;;;;;;29.60;21.30;;;;;;;;;;6309988;28;20094;-79
2022/10/21 05:23:54;;;;;;;27.70;21.00;;;;;;;;;;6307245;28;20052;-83
2022/10/21 05:26:56;;;;;;;29.52;21.23;;;;;;;;;;6305904;28;20121;-77
2022/10/21 05:29:58;;;;;;;33.45;23.42;;;;;;;;;;6302339;28;20052;-76
2022/10/21 05:32:59;;;;;;;33.05;22.10;;;;;;;;;;6302542;28;20316;-75
2022/10/21 05:36:06;;;;;;;33.15;22.42;;;;;;;;;;6308933;28;20060;-73
2022/10/21 05:39:10;;;;;;;33.88;22.92;;;;;;;;;;6308549;28;20056;-75
2022/10/21 05:42:11;;;;;;;;;;;;;;;;;;6307683;28;20052;-75
2022/10/21 05:45:13;;;;;;;35.58;22.98;;;;;;;;;;6307688;28;19924;-75
2022/10/21 05:48:17;;;;;;;37.17;22.92;;;;;;;;;;6308243;28;20060;-73
2022/10/21 05:51:24;;;;;;;36.25;22.17;;;;;;;;;;6307934;28;20060;-76
2022/10/21 05:54:25;;;;;;;32.65;22.08;;;;;;;;;;6307067;28;20050;-75
2022/10/21 05:57:27;;;;;;;30.95;20.73;;;;;;;;;;6305587;28;20362;-74
2022/10/21 06:00:29;;;;;;;32.65;23.10;;;;;;;;;;6299402;28;20067;-73
2022/10/21 06:03:33;;;;;;;32.17;21.58;;;;;;;;;;6303410;28;20401;-73
2022/10/21 06:06:36;;;;;;;32.85;22.92;;;;;;;;;;6306347;28;20217;-72
2022/10/21 06:09:38;;;;;;;35.95;22.27;;;;;;;;;;6306172;28;20373;-73
2022/10/21 06:12:40;;;;;;;40.55;23.92;;;;;;;;;;6303728;28;20064;-73
2022/10/21 06:15:41;;;;;;;40.28;24.48;;;;;;;;;;6302143;28;20243;-75
2022/10/21 06:18:43;;;;;;;39.90;24.30;;;;;;;;;;6298823;28;20117;-74
2022/10/21 06:21:47;;;;;;;35.22;23.30;;;;;;;;;;6309764;28;20052;-74
2022/10/21 06:24:49;;;;;;;38.38;23.33;;;;;;;;;;6307258;28;20128;-74
2022/10/21 06:27:51;;;;;;;40.28;23.20;;;;;;;;;;6306860;28;20116;-71
2022/10/21 06:30:53;;;;;;;37.00;23.95;;;;;;;;;;6303209;28;20383;-75
2022/10/21 06:33:55;;;;;;;34.63;23.25;;;;;;;;;;6305539;28;20224;-74
2022/10/21 06:36:58;;;;;;;37.97;23.30;;;;;;;;;;6303255;28;20110;-74
2022/10/21 06:39:59;;;;;;;33.93;23.03;;;;;;;;;;6302797;28;20059;-74
2022/10/21 06:43:01;;;;;;;34.33;23.73;;;;;;;;;;6306026;28;20470;-73
2022/10/21 06:46:04;;;;;;;35.35;21.92;;;;;;;;;;6306471;28;20052;-75
2022/10/21 06:49:06;;;;;;;33.13;21.48;;;;;;;;;;6308547;28;20255;-74
2022/10/21 06:52:09;;;;;;;35.13;22.85;;;;;;;;;;6305354;28;20080;-74
2022/10/21 06:55:10;;;;;;;36.57;22.43;;;;;;;;;;6305849;28;20090;-70
2022/10/21 06:58:12;;;;;;;37.97;22.65;;;;;;;;;;6303782;28;20450;-74
2022/10/21 07:01:16;;;;;;;32.85;22.15;;;;;;;;;;6306865;28;20093;-74
2022/10/21 07:04:18;;;;;;;30.90;22.33;;;;;;;;;;6305645;28;20052;-74
2022/10/21 07:07:21;;;;;;;34.70;23.63;;;;;;;;;;6307055;28;20282;-74
2022/10/21 07:10:22;;;;;;;36.50;23.23;;;;;;;;;;6304848;28;20224;-73
2022/10/21 07:13:24;;;;;;;32.45;23.05;;;;;;;;;;6304320;28;20125;-73
2022/10/21 07:16:28;;;;;;;36.63;22.55;;;;;;;;;;6305643;28;20055;-71
2022/10/21 07:19:30;;;;;;;38.47;23.15;;;;;;;;;;6305407;28;20104;-74
2022/10/21 07:22:34;;;;;;;47.50;23.65;;;;;;;;;;6308678;28;20048;-72
2022/10/21 07:25:36;;;;;;;38.63;23.42;;;;;;;;;;6304605;28;20342;-73
2022/10/21 07:28:38;;;;;;;38.72;23.35;;;;;;;;;;6307440;28;20094;-74
2022/10/21 07:31:39;;;;;;;37.33;22.63;;;;;;;;;;6303968;28;20072;-74
2022/10/21 07:34:41;;;;;;;40.38;22.95;;;;;;;;;;6305764;28;20053;-74
2022/10/21 07:37:44;;;;;;;41.03;22.85;;;;;;;;;;6306885;28;20108;-69
2022/10/21 07:40:46;;;;;;;42.95;23.70;;;;;;;;;;6306844;28;20063;-74
2022/10/21 07:43:47;;;;;;;38.38;23.17;;;;;;;;;;6305032;28;20048;-72
2022/10/21 07:46:50;;;;;;;39.10;22.75;;;;;;;;;;6301749;28;20052;-74
2022/10/21 07:49:51;;;;;;;41.63;23.92;;;;;;;;;;6302050;28;20273;-72
2022/10/21 07:52:54;;;;;;;40.42;22.60;;;;;;;;;;6304487;28;20109;-73
2022/10/21 07:56:04;;;;;;;43.15;24.00;;;;;;;;;;6303700;28;20044;-74
2022/10/21 07:59:06;;;;;;;40.10;23.08;;;;;;;;;;6305262;28;20052;-73
2022/10/21 08:02:09;;;;;;;41.20;22.80;;;;;;;;;;6303163;28;20044;-71
2022/10/21 08:05:10;;;;;;;40.38;22.80;;;;;;;;;;6305541;28;20080;-74
2022/10/21 08:08:13;;;;;;;43.53;23.90;;;;;;;;;;6305955;28;20041;-74
2022/10/21 08:11:21;;;;;;;40.28;23.10;;;;;;;;;;6311992;28;20217;-74
2022/10/21 08:14:23;;;;;;;44.90;22.50;;;;;;;;;;6305594;28;20044;-74
2022/10/21 08:17:24;;;;;;;40.38;22.88;;;;;;;;;;6304361;28;20336;-74
2022/10/21 08:20:26;;;;;;;42.33;23.70;;;;;;;;;;6306674;28;20094;-72
2022/10/21 08:23:29;;;;;;;37.63;23.35;;;;;;;;;;6305237;28;20294;-73
2022/10/21 08:26:30;;;;;;;40.83;23.40;;;;;;;;;;6304558;28;20048;-74
2022/10/21 08:29:32;;;;;;;43.65;22.38;;;;;;;;;;6305556;28;20559;-74
2022/10/21 08:32:34;;;;;;;41.33;22.48;;;;;;;;;;6304348;28;20090;-73
2022/10/21 08:35:35;;;;;;;43.33;25.17;;;;;;;;;;6304150;28;20378;-73
2022/10/21 08:38:38;;;;;;;39.47;23.35;;;;;;;;;;6303617;28;20094;-74
2022/10/21 08:42:05;;;;;;;42.92;24.13;;;;;;;;;;6306153;28;20063;-73
2022/10/21 08:45:09;;;;;;;44.58;22.80;;;;;;;;;;6305430;28;20086;-74
2022/10/21 08:48:15;;;;;;;40.05;23.13;;;;;;;;;;6304489;28;20056;-74
2022/10/21 08:51:23;;;;;;;42.15;23.50;;;;;;;;;;6303066;28;20147;-74
2022/10/21 08:54:31;;;;;;;42.03;24.58;;;;;;;;;;6305544;28;20287;-74
2022/10/21 08:57:34;;;;;;;38.95;23.17;;;;;;;;;;6303335;28;20057;-73
2022/10/21 09:00:39;;;;;;;41.90;22.90;;;;;;;;;;6304582;28;20072;-73
2022/10/21 09:03:45;;;;;;;39.88;22.40;;;;;;;;;;6306576;28;22962;-74
2022/10/21 09:06:52;;;;;;;37.88;22.38;;;;;;;;;;6306714;28;20045;-74
2022/10/21 09:09:58;;;;;;;41.42;22.00;;;;;;;;;;6308444;28;20093;-72
2022/10/21 09:13:04;;;;;;;35.65;20.90;;;;;;;;;;6313069;28;20106;-74
2022/10/21 09:16:12;;;;;;;37.88;22.50;;;;;;;;;;6306147;28;20063;-75
2022/10/21 09:19:22;;;;;;;43.30;23.27;;;;;;;;;;6308869;28;20335;-73
2022/10/21 09:22:40;;;;;;;31.73;21.15;;;;;;;;;;6309780;28;20227;-74
2022/10/21 09:25:47;;;;;;;33.08;20.58;;;;;;;;;;6308201;28;20122;-74
2022/10/21 09:28:50;;;;;;;32.08;20.52;;;;;;;;;;6307641;28;20153;-73
2022/10/21 09:31:52;;;;;;;31.87;20.93;;;;;;;;;;6309296;28;20060;-73
2022/10/21 09:34:58;;;;;;;30.92;20.05;;;;;;;;;;6309468;28;20070;-72
2022/10/21 09:38:03;;;;;;;30.60;19.77;;;;;;;;;;6306825;28;20376;-73
2022/10/21 09:41:09;;;;;;;30.75;20.98;;;;;;;;;;6307272;28;20052;-73
2022/10/21 09:44:15;;;;;;;29.58;20.15;;;;;;;;;;6304960;28;20060;-73
2022/10/21 09:47:20;;;;;;;30.45;19.92;;;;;;;;;;6308913;28;20044;-72
2022/10/21 09:50:21;;;;;;;29.63;20.05;;;;;;;;;;6306063;28;20071;-73
2022/10/21 09:53:26;;;;;;;28.10;18.85;;;;;;;;;;6306799;28;20056;-71
2022/10/21 09:56:35;;;;;;;32.97;19.98;;;;;;;;;;6307906;28;20086;-74
2022/10/21 09:59:50;;;;;;;29.77;19.60;;;;;;;;;;6306653;28;20213;-73
2022/10/21 10:02:51;;;;;;;30.77;19.23;;;;;;;;;;6304758;28;20048;-74
2022/10/21 10:05:53;;;;;;;25.23;18.55;;;;;;;;;;6305022;28;20071;-72
2022/10/21 10:09:06;;;;;;;30.13;18.77;;;;;;;;;;6307173;28;20056;-71
2022/10/21 10:12:13;;;;;;;24.10;18.65;;;;;;;;;;6310771;28;20624;-72
2022/10/21 10:15:24;;;;;;;27.95;18.75;;;;;;;;;;6306294;28;20090;-73
2022/10/21 10:18:26;;;;;;;29.10;19.65;;;;;;;;;;6307151;28;20040;-73
2022/10/21 10:21:28;;;;;;;29.52;19.10;;;;;;;;;;6309408;28;20052;-73
2022/10/21 10:24:31;;;;;;;22.52;17.50;;;;;;;;;;6306136;28;20094;-72
2022/10/21 10:27:34;;;;;;;29.58;19.10;;;;;;;;;;6306468;28;20244;-73
2022/10/21 10:30:37;;;;;;;28.55;17.92;;;;;;;;;;6306741;28;20052;-79
2022/10/21 10:33:55;;;;;;;27.67;18.27;;;;;;;;;;6307556;28;20094;-85
2022/10/21 10:37:00;;;;;;;26.17;17.38;;;;;;;;;;6307391;28;20051;-74
2022/10/21 10:40:04;;;;;;;27.83;17.00;;;;;;;;;;6305021;28;20101;-87
2022/10/21 10:43:13;;;;;;;26.55;17.05;;;;;;;;;;6306269;28;20056;-92
2022/10/21 10:46:23;;;;;;;21.25;14.73;;;;;;;;;;6304472;28;20279;-80
2022/10/21 10:49:25;;;;;;;26.17;18.20;;;;;;;;;;6302499;28;20110;-74
2022/10/21 10:52:26;;;;;;;25.08;16.27;;;;;;;;;;6304377;28;20328;-84
2022/10/21 10:55:28;;;;;;;20.10;15.00;;;;;;;;;;6308177;28;20278;-85
2022/10/21 10:58:33;;;;;;;19.98;13.88;;;;;;;;;;6310513;28;20040;-84
2022/10/21 11:01:38;;;;;;;22.00;15.35;;;;;;;;;;6309502;28;20154;-83
2022/10/21 11:04:41;;;;;;;19.88;14.80;;;;;;;;;;6306594;28;20102;-85
2022/10/21 11:07:45;;;;;;;20.20;14.77;;;;;;;;;;6305847;28;20052;-82
2022/10/21 11:10:48;;;;;;;22.63;14.77;;;;;;;;;;6309255;28;20213;-84
2022/10/21 11:13:51;;;;;;;21.10;15.18;;;;;;;;;;6308554;28;20201;-83
2022/10/21 11:17:01;;;;;;;27.20;14.52;;;;;;;;;;6304698;28;20271;-80
2022/10/21 11:20:06;;;;;;;21.08;14.93;;;;;;;;;;6304983;28;20052;-78
2022/10/21 11:23:19;;;;;;;19.95;14.63;;;;;;;;;;6306586;28;20052;-84
2022/10/21 11:26:26;;;;;;;22.63;13.83;;;;;;;;;;6303915;28;20561;-83
2022/10/21 11:29:38;;;;;;;23.58;14.68;;;;;;;;;;6305263;28;20478;-84
2022/10/21 11:32:53;;;;;;;20.38;13.45;;;;;;;;;;6305664;28;20119;-85
2022/10/21 11:36:02;;;;;;;20.52;14.38;;;;;;;;;;6303450;28;20057;-84
2022/10/21 11:39:25;;;;;;;25.50;13.88;;;;;;;;;;6305564;28;20267;-84
2022/10/21 11:42:31;;;;;;;20.37;13.30;;;;;;;;;;6307146;28;20600;-76
2022/10/21 11:45:46;;;;;;;19.75;13.13;;;;;;;;;;6305253;28;20068;-81
2022/10/21 11:49:08;;;;;;;20.35;13.20;;;;;;;;;;6304472;28;20108;-75
2022/10/21 11:52:19;;;;;;;21.73;13.80;;;;;;;;;;6301320;28;20052;-84
2022/10/21 11:55:38;;;;;;;25.83;14.40;;;;;;;;;;6306666;28;20052;-79
2022/10/21 11:58:49;;;;;;;18.73;13.38;;;;;;;;;;6305378;28;20048;-83
2022/10/21 12:01:57;;;;;;;30.20;14.18;;;;;;;;;;6309228;28;20048;-77
2022/10/21 12:05:05;;;;;;;22.70;14.38;;;;;;;;;;6303511;28;20570;-84
2022/10/21 12:08:14;;;;;;;24.08;13.20;;;;;;;;;;6303615;28;20048;-75
2022/10/21 12:11:17;;;;;;;21.30;13.38;;;;;;;;;;6307082;28;20048;-75
2022/10/21 12:14:25;;;;;;;20.13;13.45;;;;;;;;;;6307419;28;20118;-74
2022/10/21 12:17:29;;;;;;;19.30;13.10;;;;;;;;;;6316969;28;20098;-73
2022/10/21 12:20:32;;;;;;;18.70;12.82;;;;;;;;;;6313855;28;20044;-73
2022/10/21 12:23:34;;;;;;;16.00;12.93;;;;;;;;;;6320104;28;20102;-74
2022/10/21 12:26:38;;;;;;;19.63;13.23;;;;;;;;;;6311771;28;20111;-73
2022/10/21 12:29:50;;;;;;;22.52;12.88;;;;;;;;;;6313372;28;20055;-73
2022/10/21 12:33:05;;;;;;;17.38;12.73;;;;;;;;;;6307508;28;20044;-73
2022/10/21 12:36:38;;;;;;;18.30;13.30;;;;;;;;;;6315811;28;20093;-71
2022/10/21 12:39:50;;;;;;;25.20;12.95;;;;;;;;;;6316634;28;20048;-68
2022/10/21 12:42:58;;;;;;;17.80;12.73;;;;;;;;;;6323255;28;20076;-70
2022/10/21 12:46:06;;;;;;;15.60;12.07;;;;;;;;;;6311422;28;20113;-71
2022/10/21 12:49:20;;;;;;;19.60;13.77;;;;;;;;;;6316683;28;20060;-71
2022/10/21 12:52:23;;;;;;;18.13;12.70;;;;;;;;;;6314668;28;20051;-71
2022/10/21 12:55:27;;;;;;;19.63;14.10;;;;;;;;;;6314257;28;20051;-70
2022/10/21 12:58:31;;;;;;;;;;;;;;;;;;6315466;28;20060;-71
2022/10/21 13:01:34;;;;;;;;;;;;;;;;;;6317338;28;19974;-70
2022/10/21 13:04:48;;;;;;;18.05;12.90;;;;;;;;;;6314057;28;19932;-71
2022/10/21 13:08:14;;;;;;;18.38;13.70;;;;;;;;;;6314882;28;20044;-71
2022/10/21 13:11:24;;;;;;;18.38;13.05;;;;;;;;;;6311764;28;20093;-71
2022/10/21 13:14:30;;;;;;;16.92;12.20;;;;;;;;;;6313756;28;20081;-71
2022/10/21 13:17:52;;;;;;;19.90;13.43;;;;;;;;;;6318220;28;20095;-71
2022/10/21 13:20:59;;;;;;;15.48;12.23;;;;;;;;;;6313825;28;20041;-71
2022/10/21 13:24:12;;;;;;;16.35;12.50;;;;;;;;;;6316217;28;20048;-70
2022/10/21 13:27:26;;;;;;;50.37;15.80;;;;;;;;;;6316164;28;20040;-71
2022/10/21 13:30:29;;;;;;;17.88;12.55;;;;;;;;;;6316551;28;20060;-69
2022/10/21 13:33:32;;;;;;;21.42;13.35;;;;;;;;;;6315475;28;20094;-71
2022/10/21 13:36:42;;;;;;;20.33;14.30;;;;;;;;;;6311908;28;20060;-69
2022/10/21 13:39:43;;;;;;;19.15;13.20;;;;;;;;;;6318568;28;20063;-71
2022/10/21 13:42:48;;;;;;;17.42;12.00;;;;;;;;;;6320677;28;20056;-71
2022/10/21 13:45:51;;;;;;;22.73;13.32;;;;;;;;;;6315489;28;20055;-71
2022/10/21 13:48:53;;;;;;;16.52;12.63;;;;;;;;;;6315445;28;20243;-73
2022/10/21 13:51:56;;;;;;;16.45;12.70;;;;;;;;;;6314226;28;20049;-71
2022/10/21 13:54:59;;;;;;;19.85;13.73;;;;;;;;;;6316391;28;20044;-71
2022/10/21 13:58:00;;;;;;;28.67;13.73;;;;;;;;;;6317720;28;20071;-70
2022/10/21 14:01:12;;;;;;;34.28;14.02;;;;;;;;;;6316384;28;20131;-71
2022/10/21 14:04:15;;;;;;;23.48;14.13;;;;;;;;;;6316363;28;20059;-71
2022/10/21 14:07:19;;;;;;;23.65;13.73;;;;;;;;;;6318906;28;20044;-71
2022/10/21 14:10:21;;;;;;;;;;;;;;;;;;6315911;28;20371;-71
2022/10/21 14:13:24;;;;;;;18.83;13.20;;;;;;;;;;6317617;28;19927;-71
2022/10/21 14:16:31;;;;;;;21.27;14.43;;;;;;;;;;6315702;28;20102;-70
2022/10/21 14:19:35;;;;;;;22.30;14.25;;;;;;;;;;6313819;28;20128;-71
2022/10/21 14:22:38;;;;;;;21.85;14.05;;;;;;;;;;6315147;28;20358;-72
2022/10/21 14:25:40;;;;;;;;;;;;;;;;;;6313929;28;21738;-72
2022/10/21 14:28:42;;;;;;;16.80;13.25;;;;;;;;;;6312207;28;19981;-71
2022/10/21 14:31:44;;;;;;;24.05;14.32;;;;;;;;;;6314235;28;20055;-71
2022/10/21 14:34:58;;;;;;;26.17;14.15;;;;;;;;;;6314371;28;20056;-71
2022/10/21 14:38:03;;;;;;;25.35;15.00;;;;;;;;;;6316024;28;20052;-70
2022/10/21 14:41:07;;;;;;;17.33;13.38;;;;;;;;;;6310193;28;20064;-70
2022/10/21 14:44:14;;;;;;;20.70;14.02;;;;;;;;;;6305589;28;20056;-71
2022/10/21 14:47:17;;;;;;;19.42;13.88;;;;;;;;;;6306465;28;20316;-70
2022/10/21 14:50:22;;;;;;;18.73;13.75;;;;;;;;;;6304365;28;20262;-72
2022/10/21 14:53:26;;;;;;;20.45;14.98;;;;;;;;;;6303147;28;20244;-70
2022/10/21 14:56:30;;;;;;;20.60;14.70;;;;;;;;;;6303751;28;20047;-72
2022/10/21 14:59:37;;;;;;;18.75;14.05;;;;;;;;;;6304339;28;20359;-73
2022/10/21 15:02:39;;;;;;;26.17;14.90;;;;;;;;;;6304402;28;20090;-71
2022/10/21 15:05:42;;;;;;;19.23;14.57;;;;;;;;;;6302455;28;20052;-72
2022/10/21 15:08:58;;;;;;;18.33;15.27;;;;;;;;;;6302913;28;20056;-72
2022/10/21 15:12:17;;;;;;;22.88;15.27;;;;;;;;;;6306151;28;20490;-71
2022/10/21 15:15:47;;;;;;;23.02;15.13;;;;;;;;;;6303281;28;20082;-71
2022/10/21 15:18:52;;;;;;;22.30;15.60;;;;;;;;;;6302332;28;20044;-73
2022/10/21 15:21:57;;;;;;;29.95;22.95;;;;;;;;;;6304782;28;20095;-70
2022/10/21 15:25:05;;;;;;;54.05;36.58;;;;;;;;;;6305346;28;20056;-70
2022/10/21 15:28:09;;;;;;;40.20;27.45;;;;;;;;;;6304649;28;20060;-73
2022/10/21 15:31:16;;;;;;;22.70;15.68;;;;;;;;;;6301966;28;20122;-75
2022/10/21 15:34:17;;;;;;;18.08;14.57;;;;;;;;;;6305216;28;20052;-75
2022/10/21 15:37:19;;;;;;;20.60;14.68;;;;;;;;;;6303638;28;20597;-75
2022/10/21 15:40:22;;;;;;;25.65;15.27;;;;;;;;;;6305177;28;20094;-74
2022/10/21 15:43:24;;;;;;;22.25;14.68;;;;;;;;;;6308626;28;20075;-76
2022/10/21 15:46:26;;;;;;;20.73;15.30;;;;;;;;;;6304683;28;20056;-76
2022/10/21 15:49:31;;;;;;;20.73;14.90;;;;;;;;;;6304135;28;20127;-72
2022/10/21 15:52:33;;;;;;;22.30;14.88;;;;;;;;;;6305034;28;20102;-78
2022/10/21 15:55:37;;;;;;;21.58;15.93;;;;;;;;;;6307769;28;20051;-82
2022/10/21 15:58:39;;;;;;;21.58;15.98;;;;;;;;;;6304229;28;20347;-76
2022/10/21 16:01:40;;;;;;;21.63;15.52;;;;;;;;;;6306057;28;20063;-74
2022/10/21 16:04:42;;;;;;;24.65;16.77;;;;;;;;;;6305832;28;20040;-76
2022/10/21 16:07:44;;;;;;;22.10;15.88;;;;;;;;;;6312509;28;20060;-80
2022/10/21 16:10:48;;;;;;;23.77;17.58;;;;;;;;;;6307415;28;20059;-75
2022/10/21 16:13:50;;;;;;;23.50;17.35;;;;;;;;;;6309100;28;21100;-74
2022/10/21 16:16:53;;;;;;;23.35;17.08;;;;;;;;;;6308589;28;20234;-77
2022/10/21 16:19:55;;;;;;;26.35;17.25;;;;;;;;;;6305131;28;20181;-78
2022/10/21 16:22:57;;;;;;;22.95;17.65;;;;;;;;;;6302756;28;20044;-75
2022/10/21 16:26:00;;;;;;;27.33;18.63;;;;;;;;;;6305250;28;20113;-75
2022/10/21 16:29:02;;;;;;;28.17;18.37;;;;;;;;;;6305300;28;20332;-76
2022/10/21 16:32:03;;;;;;;24.83;17.70;;;;;;;;;;6303698;28;22160;-75
2022/10/21 16:35:05;;;;;;;22.45;16.70;;;;;;;;;;6305531;28;20109;-74
2022/10/21 16:38:07;;;;;;;26.50;17.15;;;;;;;;;;6312946;28;20076;-81
2022/10/21 16:41:11;;;;;;;23.45;17.58;;;;;;;;;;6312787;28;20040;-77
2022/10/21 16:44:13;;;;;;;24.02;17.55;;;;;;;;;;6311688;28;20092;-77
2022/10/21 16:47:17;;;;;;;25.27;17.98;;;;;;;;;;6293200;28;20056;-77
2022/10/21 16:50:21;;;;;;;22.85;18.30;;;;;;;;;;6291476;28;20348;-76
2022/10/21 16:53:27;;;;;;;25.75;18.70;;;;;;;;;;6310815;28;20052;-77
2022/10/21 16:56:30;;;;;;;26.15;18.23;;;;;;;;;;6309736;28;20119;-76
2022/10/21 16:59:32;;;;;;;23.43;18.73;;;;;;;;;;6304164;28;20040;-77
2022/10/21 17:02:34;;;;;;;32.65;18.25;;;;;;;;;;6307805;28;20893;-77
2022/10/21 17:05:35;;;;;;;24.52;18.20;;;;;;;;;;6312903;28;20045;-90
2022/10/21 17:08:37;;;;;;;26.38;18.58;;;;;;;;;;6308196;28;20044;-76
2022/10/21 17:11:41;;;;;;;23.80;19.08;;;;;;;;;;6306039;28;20052;-84
2022/10/21 17:14:42;;;;;;;25.40;19.10;;;;;;;;;;6311742;28;20101;-77
2022/10/21 17:17:44;;;;;;;27.08;19.70;;;;;;;;;;6307479;28;20045;-79
2022/10/21 17:20:46;;;;;;;25.38;19.27;;;;;;;;;;6308242;28;20048;-75
2022/10/21 17:23:48;;;;;;;25.98;19.55;;;;;;;;;;6311560;28;20049;-84
2022/10/21 17:26:51;;;;;;;29.08;20.38;;;;;;;;;;6310449;28;20370;-79
2022/10/21 17:29:52;;;;;;;30.92;20.25;;;;;;;;;;6302150;28;20063;-69
2022/10/21 17:32:54;;;;;;;26.02;21.00;;;;;;;;;;6306018;28;20264;-71
2022/10/21 17:35:56;;;;;;;24.95;19.55;;;;;;;;;;6311467;28;20044;-69
2022/10/21 17:38:57;;;;;;;27.35;20.02;;;;;;;;;;6313219;28;20117;-71
2022/10/21 17:42:00;;;;;;;28.77;19.85;;;;;;;;;;6304204;28;20056;-70
2022/10/21 17:45:02;;;;;;;31.33;21.67;;;;;;;;;;6307982;28;20181;-71
2022/10/21 17:48:04;;;;;;;31.50;20.80;;;;;;;;;;6306189;28;20483;-72
2022/10/21 17:51:05;;;;;;;25.35;20.23;;;;;;;;;;6302792;28;20106;-71
2022/10/21 17:54:07;;;;;;;27.40;20.80;;;;;;;;;;6304030;28;20149;-73
2022/10/21 17:57:11;;;;;;;27.27;20.88;;;;;;;;;;6303749;28;20066;-72